Time;durP1;ratioP1;P1;durP2;ratioP2;P2;SDS_P1;SDS_P2;PMS_P1;PMS_P2;Temp;Humidity;BMP_temperature;BMP_pressure;BME280_temperature;BME280_humidity;BME280_pressure;Samples;Min_cycle;Max_cycle;Signal;HPM_P1;HPM_P2
2022/01/17 08:15:05;;;;;;;37.53;4.57;;;6.70;99.90;;;;;;5131993;27;20387;-65
2022/01/17 08:17:36;;;;;;;33.17;5.05;;;6.70;99.90;;;;;;5128363;27;20594;-65
2022/01/17 08:20:11;;;;;;;37.63;5.30;;;6.70;99.90;;;;;;5124595;28;20055;-64
2022/01/17 08:22:37;;;;;;;37.85;5.80;;;6.70;99.90;;;;;;5119185;28;20044;-63
2022/01/17 08:25:04;;;;;;;37.00;5.60;;;6.70;99.90;;;;;;5128844;28;20046;-63
2022/01/17 08:27:30;;;;;;;45.05;6.10;;;6.80;99.90;;;;;;5131670;27;20121;-63
2022/01/17 08:29:57;;;;;;;;;;;6.70;99.90;;;;;;5132130;27;20528;-65
2022/01/17 08:32:23;;;;;;;32.67;4.78;;;6.80;99.90;;;;;;5130612;28;19919;-64
2022/01/17 08:34:49;;;;;;;;;;;6.80;99.90;;;;;;5128642;27;20132;-64
2022/01/17 08:37:14;;;;;;;39.67;4.95;;;6.80;99.90;;;;;;5120878;28;19919;-64
2022/01/17 08:39:40;;;;;;;34.88;5.70;;;6.90;99.90;;;;;;5118332;28;20047;-64
2022/01/17 08:42:10;;;;;;;32.65;5.10;;;6.90;99.90;;;;;;5115018;28;20501;-64
2022/01/17 08:44:38;;;;;;;38.70;6.25;;;6.90;99.90;;;;;;5109940;28;20130;-66
2022/01/17 08:47:04;;;;;;;35.95;5.15;;;7.10;99.90;;;;;;5116325;28;20105;-64
2022/01/17 08:49:30;;;;;;;30.35;4.38;;;7.00;99.90;;;;;;5119791;28;20055;-64
2022/01/17 08:51:56;;;;;;;35.90;5.95;;;7.10;99.90;;;;;;5122408;28;20040;-64
2022/01/17 08:54:21;;;;;;;42.55;5.38;;;7.20;99.90;;;;;;5120113;28;20494;-64
2022/01/17 08:56:47;;;;;;;31.80;5.20;;;7.20;99.90;;;;;;5120732;28;20043;-64
2022/01/17 08:59:13;;;;;;;37.47;5.13;;;7.20;99.90;;;;;;5125156;27;20125;-65
2022/01/17 09:01:39;;;;;;;32.33;4.78;;;7.40;99.90;;;;;;5131053;27;20130;-64
2022/01/17 09:04:04;;;;;;;31.95;4.57;;;7.40;99.90;;;;;;5119759;28;20051;-64
2022/01/17 09:06:30;;;;;;;31.90;5.03;;;7.40;99.90;;;;;;5119900;28;20106;-63
2022/01/17 09:08:56;;;;;;;33.33;4.28;;;7.50;99.90;;;;;;5122902;28;20074;-65
2022/01/17 09:11:22;;;;;;;42.13;6.30;;;7.50;99.90;;;;;;5131089;27;20047;-64
2022/01/17 09:13:48;;;;;;;28.63;5.22;;;7.50;99.90;;;;;;5110874;27;20048;-64
2022/01/17 09:16:15;;;;;;;34.03;5.93;;;7.60;99.90;;;;;;5109604;28;20048;-64
2022/01/17 09:18:40;;;;;;;26.88;4.82;;;7.60;99.90;;;;;;5110234;28;20044;-62
2022/01/17 09:21:06;;;;;;;31.15;4.90;;;7.70;99.90;;;;;;5109686;28;20052;-65
2022/01/17 09:23:32;;;;;;;39.33;5.32;;;7.70;99.90;;;;;;5120654;28;20110;-65
2022/01/17 09:25:57;;;;;;;33.47;5.53;;;7.70;99.90;;;;;;5107883;28;20040;-65
2022/01/17 09:28:23;;;;;;;40.10;5.45;;;7.80;99.90;;;;;;5106362;28;20090;-65
2022/01/17 09:30:50;;;;;;;33.80;5.18;;;7.80;99.90;;;;;;5105920;28;20049;-65
2022/01/17 09:33:16;;;;;;;31.50;5.40;;;7.80;99.90;;;;;;5116184;28;20073;-65
2022/01/17 09:35:42;;;;;;;36.60;5.30;;;7.80;99.90;;;;;;5117328;28;20051;-67
2022/01/17 09:38:07;;;;;;;41.42;5.95;;;7.80;99.90;;;;;;5115611;28;20066;-65
2022/01/17 09:40:34;;;;;;;32.53;5.55;;;7.80;99.90;;;;;;5095908;28;20172;-64
2022/01/17 09:43:02;;;;;;;32.53;5.22;;;7.80;99.90;;;;;;5095363;28;20051;-64
2022/01/17 09:45:29;;;;;;;36.33;5.80;;;8.00;99.90;;;;;;5095761;28;20130;-65
2022/01/17 09:47:55;;;;;;;34.58;5.13;;;7.80;99.90;;;;;;5094925;28;20059;-64
2022/01/17 09:50:32;;;;;;;;;;;7.90;99.90;;;;;;5096375;28;20052;-64
2022/01/17 09:52:59;;;;;;;43.55;6.10;;;7.90;99.90;;;;;;5096834;28;19927;-64
2022/01/17 09:55:28;;;;;;;43.53;6.45;;;8.00;99.90;;;;;;5096022;28;20040;-64
2022/01/17 09:57:55;;;;;;;42.55;6.00;;;8.00;99.90;;;;;;5095879;28;20072;-64
2022/01/17 10:00:27;;;;;;;36.88;6.00;;;8.10;99.90;;;;;;5094883;28;20091;-64
2022/01/17 10:02:55;;;;;;;31.95;5.82;;;8.30;99.90;;;;;;5096769;28;20218;-64
2022/01/17 10:05:21;;;;;;;37.90;5.35;;;8.20;99.90;;;;;;5095827;28;20044;-64
2022/01/17 10:08:00;;;;;;;36.42;6.15;;;8.30;99.90;;;;;;5094790;28;20105;-65
2022/01/17 10:10:50;;;;;;;33.08;5.18;;;8.40;99.90;;;;;;5095095;28;20048;-65
2022/01/17 10:13:20;;;;;;;38.20;6.10;;;8.40;99.90;;;;;;5095237;28;20058;-65
2022/01/17 10:16:04;;;;;;;45.28;6.13;;;8.50;99.90;;;;;;5096124;28;20247;-64
2022/01/17 10:18:53;;;;;;;34.00;5.97;;;8.40;99.90;;;;;;5108102;27;20509;-65
2022/01/17 10:21:31;;;;;;;41.08;5.65;;;8.40;99.90;;;;;;5116772;28;20098;-65
2022/01/17 10:34:56;;;;;;;35.17;6.45;;;8.60;99.90;;;;;;5115868;28;20134;-65
2022/01/17 10:37:27;;;;;;;42.25;6.97;;;8.60;99.90;;;;;;5115417;28;20094;-64
2022/01/17 10:39:58;;;;;;;36.80;6.40;;;8.60;99.90;;;;;;5115414;28;20081;-64
2022/01/17 10:42:48;;;;;;;44.63;6.80;;;8.60;99.90;;;;;;5115046;28;20134;-64
2022/01/17 10:45:28;;;;;;;41.78;6.72;;;8.60;99.90;;;;;;5104605;28;20112;-64
2022/01/17 10:47:57;;;;;;;29.88;6.18;;;8.70;99.90;;;;;;5114645;28;20047;-64
2022/01/17 10:50:30;;;;;;;38.60;6.65;;;8.70;99.90;;;;;;5115415;28;20055;-64
2022/01/17 10:52:57;;;;;;;43.40;6.25;;;8.70;99.90;;;;;;5114322;28;20517;-65
2022/01/17 10:55:24;;;;;;;45.50;7.50;;;8.70;99.90;;;;;;5115190;28;20083;-65
2022/01/17 10:58:02;;;;;;;36.05;7.05;;;8.70;99.90;;;;;;5114085;28;20056;-64
2022/01/17 11:00:30;;;;;;;43.00;6.82;;;8.80;99.90;;;;;;5115205;28;20059;-65
2022/01/17 11:02:58;;;;;;;51.78;6.97;;;8.80;99.90;;;;;;5115115;28;20058;-66
2022/01/17 11:05:28;;;;;;;45.17;6.68;;;8.80;99.90;;;;;;5114443;28;20245;-66
2022/01/17 11:08:02;;;;;;;52.78;7.75;;;8.90;99.90;;;;;;5094755;28;20055;-62
2022/01/17 11:10:37;;;;;;;42.90;8.07;;;8.80;99.90;;;;;;5094392;28;20384;-65
2022/01/17 11:13:05;;;;;;;44.97;8.23;;;8.90;99.90;;;;;;5094116;28;20484;-64
2022/01/17 11:15:33;;;;;;;49.90;7.20;;;8.80;99.90;;;;;;5094463;28;20052;-64
2022/01/17 11:18:18;;;;;;;45.78;7.53;;;8.80;99.90;;;;;;5094272;28;20079;-64
2022/01/17 11:20:45;;;;;;;46.08;6.90;;;8.80;99.90;;;;;;5094382;28;20059;-64
2022/01/17 11:23:11;;;;;;;42.47;7.30;;;8.80;99.90;;;;;;5093704;28;20055;-63
2022/01/17 11:25:42;;;;;;;44.83;8.20;;;8.70;99.90;;;;;;5094538;28;20396;-64
2022/01/17 11:28:09;;;;;;;48.22;7.65;;;8.70;99.90;;;;;;5094008;28;20369;-64
2022/01/17 11:30:38;;;;;;;38.25;7.05;;;8.80;99.90;;;;;;5094124;28;20056;-64
2022/01/17 11:33:08;;;;;;;48.33;7.90;;;8.80;99.90;;;;;;5094081;28;20047;-64
2022/01/17 11:35:37;;;;;;;41.53;7.70;;;8.80;99.90;;;;;;5094082;28;20044;-63
2022/01/17 11:38:04;;;;;;;49.92;7.03;;;8.80;99.90;;;;;;5099338;28;20047;-64
2022/01/17 11:40:33;;;;;;;40.13;6.95;;;8.80;99.90;;;;;;5104764;28;20058;-64
2022/01/17 11:43:00;;;;;;;43.65;6.70;;;8.90;99.90;;;;;;5093236;28;20047;-65
2022/01/17 11:45:29;;;;;;;43.53;6.65;;;8.90;99.90;;;;;;5094027;28;20036;-64
2022/01/17 11:47:59;;;;;;;36.97;6.20;;;8.90;99.90;;;;;;5096318;28;20055;-64
2022/01/17 11:50:28;;;;;;;50.85;7.53;;;8.90;99.90;;;;;;5104570;28;20081;-65
2022/01/17 11:52:58;;;;;;;51.35;8.98;;;8.90;99.90;;;;;;5103558;28;20493;-64
2022/01/17 11:55:42;;;;;;;58.95;8.13;;;8.90;99.90;;;;;;5102511;28;20051;-64
2022/01/17 11:58:24;;;;;;;48.72;8.30;;;8.90;99.90;;;;;;5102647;28;20079;-64
2022/01/17 12:01:08;;;;;;;46.13;7.80;;;9.00;99.90;;;;;;5099449;28;20044;-64
2022/01/17 12:03:41;;;;;;;49.42;8.32;;;9.00;99.90;;;;;;5105680;28;20043;-63
2022/01/17 12:06:27;;;;;;;46.83;7.60;;;9.10;99.90;;;;;;5114092;28;20398;-64
2022/01/17 12:09:25;;;;;;;46.00;7.50;;;9.10;99.90;;;;;;5114004;28;20369;-64
2022/01/17 12:12:11;;;;;;;;;;;9.20;99.90;;;;;;5104400;28;20067;-64
2022/01/17 12:14:54;;;;;;;42.08;6.43;;;9.20;99.90;;;;;;5105236;28;19972;-65
2022/01/17 12:17:19;;;;;;;53.03;7.78;;;9.20;99.90;;;;;;5110752;28;20529;-64
2022/01/17 12:20:03;;;;;;;50.85;8.32;;;9.20;99.90;;;;;;5103730;28;20048;-64
2022/01/17 12:22:31;;;;;;;48.38;7.60;;;9.20;99.90;;;;;;5104308;28;20083;-65
2022/01/17 12:24:56;;;;;;;53.47;8.23;;;9.30;99.90;;;;;;5104327;28;20052;-65
2022/01/17 12:27:26;;;;;;;42.90;7.15;;;9.30;99.90;;;;;;5113889;28;20047;-65
2022/01/17 12:30:12;;;;;;;42.00;7.57;;;9.20;99.90;;;;;;5113855;28;20047;-65
2022/01/17 12:32:39;;;;;;;46.63;6.55;;;9.20;99.90;;;;;;5113950;28;20048;-65
2022/01/17 12:35:05;;;;;;;52.65;8.57;;;9.20;99.90;;;;;;5113745;28;20055;-65
2022/01/17 12:37:31;;;;;;;48.42;7.97;;;9.20;99.90;;;;;;5112655;28;20488;-65
2022/01/17 12:40:10;;;;;;;;;;;9.10;99.90;;;;;;5113090;28;20058;-65
2022/01/17 12:42:50;;;;;;;43.88;7.80;;;9.20;99.90;;;;;;5113632;28;19927;-65
2022/01/17 12:45:29;;;;;;;52.58;7.88;;;9.20;99.90;;;;;;5112598;28;20044;-66
2022/01/17 12:47:55;;;;;;;50.53;9.07;;;9.20;99.90;;;;;;5113969;28;20091;-65
2022/01/17 12:50:23;;;;;;;47.00;7.88;;;9.20;99.90;;;;;;5113631;28;20041;-65
2022/01/17 12:52:53;;;;;;;60.50;8.50;;;9.10;99.90;;;;;;5113538;28;20073;-65
2022/01/17 12:55:20;;;;;;;45.13;7.50;;;9.20;99.90;;;;;;5114324;28;20050;-64
2022/01/17 12:57:46;;;;;;;46.85;7.85;;;9.30;99.90;;;;;;5112513;28;20096;-65
2022/01/17 13:00:16;;;;;;;;;;;9.20;99.90;;;;;;5114054;28;20047;-65
2022/01/17 13:02:47;;;;;;;57.63;8.95;;;9.30;99.90;;;;;;5117950;27;20382;-65
2022/01/17 13:05:13;;;;;;;47.47;7.47;;;9.20;99.90;;;;;;5111080;28;20070;-65
2022/01/17 13:07:41;;;;;;;50.33;7.70;;;9.30;99.90;;;;;;5104615;28;20434;-65
2022/01/17 13:10:10;;;;;;;58.03;8.60;;;9.30;99.90;;;;;;5097404;28;20040;-65
2022/01/17 13:12:36;;;;;;;46.33;8.57;;;9.30;99.90;;;;;;5097293;28;20043;-65
2022/01/17 13:15:02;;;;;;;46.25;8.60;;;9.30;99.90;;;;;;5095413;28;20095;-65
2022/01/17 13:17:32;;;;;;;51.95;8.52;;;9.20;99.90;;;;;;5096585;28;20521;-66
2022/01/17 13:19:59;;;;;;;51.10;8.25;;;9.20;99.90;;;;;;5096650;28;20052;-66
2022/01/17 13:22:25;;;;;;;48.95;6.72;;;9.30;99.90;;;;;;5103637;28;20047;-64
2022/01/17 13:25:02;;;;;;;45.45;7.50;;;9.00;99.90;;;;;;5105513;28;20036;-65
2022/01/17 13:27:32;;;;;;;59.15;8.43;;;9.20;99.90;;;;;;5107849;28;20035;-65
2022/01/17 13:29:58;;;;;;;60.08;8.85;;;9.20;99.90;;;;;;5117462;28;20044;-65
2022/01/17 13:32:33;;;;;;;52.38;8.90;;;9.20;99.90;;;;;;5116893;28;20130;-65
2022/01/17 13:35:11;;;;;;;42.60;7.80;;;9.20;99.90;;;;;;5116770;28;20039;-65
2022/01/17 13:37:41;;;;;;;47.13;8.40;;;9.10;99.90;;;;;;5117012;28;20055;-66
2022/01/17 13:40:12;;;;;;;52.83;8.85;;;9.50;99.90;;;;;;5116750;28;20043;-66
2022/01/17 13:42:51;;;;;;;49.45;9.90;;;9.10;99.90;;;;;;5116708;28;20130;-65
2022/01/17 13:45:37;;;;;;;51.47;8.43;;;9.00;99.90;;;;;;5113374;28;20432;-66
2022/01/17 13:48:06;;;;;;;48.33;8.73;;;9.00;99.90;;;;;;5091840;28;20056;-65
2022/01/17 13:50:34;;;;;;;57.83;9.15;;;9.00;99.90;;;;;;5104657;28;20044;-65
2022/01/17 13:53:01;;;;;;;47.00;8.18;;;9.00;99.90;;;;;;5110511;28;20050;-64
2022/01/17 13:55:37;;;;;;;56.53;8.65;;;8.90;99.90;;;;;;5110586;28;20399;-66
2022/01/17 13:58:04;;;;;;;;;;;9.00;99.90;;;;;;5105297;28;20483;-65
2022/01/17 14:00:39;;;;;;;51.67;7.82;;;8.90;99.90;;;;;;5116292;28;19920;-65
2022/01/17 14:03:07;;;;;;;50.53;9.25;;;8.90;99.90;;;;;;5116227;28;20050;-65
2022/01/17 14:05:39;;;;;;;52.05;8.07;;;8.90;99.90;;;;;;5116219;28;20043;-65
2022/01/17 14:08:21;;;;;;;62.20;9.50;;;8.80;99.90;;;;;;5115263;28;20047;-65
2022/01/17 14:10:48;;;;;;;57.45;8.88;;;8.90;99.90;;;;;;5115565;28;20082;-66
2022/01/17 14:13:18;;;;;;;54.63;8.52;;;9.00;99.90;;;;;;5116757;28;20067;-64
2022/01/17 14:15:43;;;;;;;54.83;8.73;;;8.90;99.90;;;;;;5115776;28;20136;-64
2022/01/17 14:18:10;;;;;;;56.10;9.35;;;9.10;99.90;;;;;;5114941;28;20479;-64
2022/01/17 14:20:38;;;;;;;51.05;8.93;;;8.90;99.90;;;;;;5115895;27;20126;-64
2022/01/17 14:23:05;;;;;;;51.28;8.35;;;8.90;99.90;;;;;;5106186;28;20084;-65
2022/01/17 14:25:35;;;;;;;46.72;8.50;;;8.80;99.90;;;;;;5104907;28;20123;-65
2022/01/17 14:28:05;;;;;;;53.20;8.23;;;8.90;99.90;;;;;;5104132;28;20112;-65
2022/01/17 14:30:34;;;;;;;54.88;8.38;;;8.80;99.90;;;;;;5105323;28;20047;-64
2022/01/17 14:33:12;;;;;;;60.35;8.68;;;8.80;99.90;;;;;;5105483;28;20043;-65
2022/01/17 14:35:38;;;;;;;65.55;9.38;;;8.80;99.90;;;;;;5107154;28;20123;-65
2022/01/17 14:38:04;;;;;;;51.22;7.93;;;8.70;99.90;;;;;;5105255;28;20043;-65
2022/01/17 14:40:33;;;;;;;50.55;8.75;;;8.70;99.90;;;;;;5102770;28;20403;-65
2022/01/17 14:43:13;;;;;;;60.53;7.70;;;8.60;99.90;;;;;;5103091;28;20075;-65
2022/01/17 14:45:38;;;;;;;59.83;9.57;;;8.70;99.90;;;;;;5094640;28;20099;-65
2022/01/17 14:48:15;;;;;;;58.72;9.30;;;8.60;99.90;;;;;;5094465;28;20083;-64
2022/01/17 14:50:41;;;;;;;60.92;9.57;;;8.60;99.90;;;;;;5095021;28;20039;-65
2022/01/17 14:53:15;;;;;;;50.30;8.57;;;8.60;99.90;;;;;;5094873;28;20134;-65
2022/01/17 15:01:03;;;;;;;61.03;9.40;;;8.60;99.90;;;;;;5095306;28;20105;-65
2022/01/17 15:03:32;;;;;;;59.38;10.38;;;8.50;99.90;;;;;;5094677;28;20116;-65
2022/01/17 15:05:58;;;;;;;55.50;8.63;;;8.50;99.90;;;;;;5093626;28;20048;-65
2022/01/17 15:08:24;;;;;;;54.22;8.30;;;8.50;99.90;;;;;;5094599;28;20584;-64
2022/01/17 15:10:51;;;;;;;58.97;9.98;;;8.40;99.90;;;;;;5095073;28;20358;-65
2022/01/17 15:13:17;;;;;;;54.30;8.43;;;8.40;99.90;;;;;;5093470;28;20447;-65
2022/01/17 15:15:44;;;;;;;55.55;8.40;;;8.40;99.90;;;;;;5094218;28;20060;-64
2022/01/17 15:18:13;;;;;;;48.60;7.65;;;8.40;99.90;;;;;;5094915;28;20408;-65
2022/01/17 15:20:41;;;;;;;49.45;8.07;;;8.30;99.90;;;;;;5115320;28;20127;-65
2022/01/17 15:23:07;;;;;;;52.92;9.02;;;8.30;99.90;;;;;;5114179;28;20086;-65
2022/01/17 15:25:33;;;;;;;54.05;9.73;;;8.30;99.90;;;;;;5114733;28;20102;-66
2022/01/17 15:27:59;;;;;;;58.17;8.27;;;8.30;99.90;;;;;;5114248;28;20472;-63
2022/01/17 15:30:31;;;;;;;49.45;8.75;;;8.20;99.90;;;;;;5114715;28;20096;-63
2022/01/17 15:32:57;;;;;;;56.03;8.43;;;8.20;99.90;;;;;;5108734;28;20633;-64
2022/01/17 15:35:26;;;;;;;50.88;8.55;;;8.20;99.90;;;;;;5103265;28;20040;-63
2022/01/17 15:37:53;;;;;;;48.92;8.02;;;8.20;99.90;;;;;;5102897;28;20408;-63
2022/01/17 15:40:19;;;;;;;61.92;8.38;;;8.20;99.90;;;;;;5101945;28;20111;-63
2022/01/17 15:42:46;;;;;;;55.78;8.18;;;8.30;99.90;;;;;;5103280;28;20044;-63
2022/01/17 15:45:12;;;;;;;48.35;7.28;;;7.70;99.90;;;;;;5104802;28;20044;-64
2022/01/17 15:47:38;;;;;;;50.03;8.93;;;8.20;99.90;;;;;;5103238;28;20101;-64
2022/01/17 15:50:05;;;;;;;46.03;8.00;;;8.20;99.90;;;;;;5101973;28;20043;-64
2022/01/17 15:52:30;;;;;;;54.35;8.25;;;8.20;99.90;;;;;;5104618;28;20035;-64
2022/01/17 15:54:56;;;;;;;52.47;7.88;;;8.30;99.90;;;;;;5102792;28;20387;-66
2022/01/17 15:57:22;;;;;;;51.30;7.60;;;8.50;99.90;;;;;;5102153;28;20036;-63
2022/01/17 15:59:47;;;;;;;47.28;8.05;;;8.30;99.90;;;;;;5103731;28;20122;-64
2022/01/17 16:02:13;;;;;;;49.45;9.02;;;8.20;99.90;;;;;;5096888;28;20039;-64
2022/01/17 16:04:40;;;;;;;60.67;8.55;;;8.20;99.90;;;;;;5093662;28;20048;-64
2022/01/17 16:07:06;;;;;;;51.53;8.77;;;8.20;99.90;;;;;;5093623;28;20075;-63
2022/01/17 16:09:32;;;;;;;52.70;9.05;;;8.10;99.90;;;;;;5093812;28;20051;-63
2022/01/17 16:11:57;;;;;;;54.35;8.63;;;8.10;99.90;;;;;;5093868;28;20404;-64
2022/01/17 16:14:24;;;;;;;54.45;8.98;;;8.00;99.90;;;;;;5093224;28;20059;-63
2022/01/17 16:16:50;;;;;;;49.88;8.50;;;8.00;99.90;;;;;;5093524;28;20052;-63
2022/01/17 16:19:16;;;;;;;45.13;8.00;;;7.90;99.90;;;;;;5092590;28;20051;-64
2022/01/17 16:21:41;;;;;;;46.75;8.40;;;7.90;99.90;;;;;;5093607;28;20044;-64
2022/01/17 16:24:08;;;;;;;65.30;10.05;;;8.00;99.90;;;;;;5093526;28;20391;-63
2022/01/17 16:26:35;;;;;;;55.33;8.82;;;7.90;99.90;;;;;;5096500;28;20086;-64
2022/01/17 16:29:02;;;;;;;58.80;8.90;;;7.90;99.90;;;;;;5104615;28;20044;-63
2022/01/17 16:31:28;;;;;;;53.15;9.15;;;7.70;99.90;;;;;;5105745;28;20548;-65
2022/01/17 16:33:54;;;;;;;62.70;8.38;;;7.70;99.90;;;;;;5114340;28;20048;-63
2022/01/17 16:36:20;;;;;;;57.00;8.80;;;7.70;99.90;;;;;;5108645;28;20051;-64
2022/01/17 16:38:46;;;;;;;45.75;7.25;;;7.70;99.90;;;;;;5117863;28;20043;-63
2022/01/17 16:41:13;;;;;;;46.40;7.30;;;7.70;99.90;;;;;;5112136;28;20558;-63
2022/01/17 16:43:40;;;;;;;53.22;7.97;;;7.70;99.90;;;;;;5111370;28;20056;-65
2022/01/17 16:46:07;;;;;;;51.55;8.02;;;7.80;99.90;;;;;;5097382;28;20048;-63
2022/01/17 16:48:33;;;;;;;62.03;8.38;;;7.70;99.90;;;;;;5097205;28;20052;-64
2022/01/17 16:50:59;;;;;;;;;;;7.70;99.90;;;;;;5097687;28;20113;-65
2022/01/17 16:53:24;;;;;;;51.28;9.27;;;7.70;99.90;;;;;;5096163;28;20410;-64
2022/01/17 16:55:50;;;;;;;56.60;7.35;;;7.70;99.90;;;;;;5097151;28;20047;-64
2022/01/17 16:58:18;;;;;;;63.20;8.98;;;7.70;99.90;;;;;;5096671;28;20057;-64
2022/01/17 17:00:44;;;;;;;54.97;8.30;;;7.70;99.90;;;;;;5097609;28;20048;-64
2022/01/17 17:03:10;;;;;;;52.08;8.35;;;7.70;99.90;;;;;;5097606;28;20054;-65
2022/01/17 17:05:35;;;;;;;51.35;8.65;;;7.80;99.90;;;;;;5096979;28;20055;-65
2022/01/17 17:08:01;;;;;;;49.20;8.07;;;7.70;99.90;;;;;;5096889;28;20039;-64
2022/01/17 17:10:27;;;;;;;56.50;10.05;;;7.70;99.90;;;;;;5096791;28;20059;-64
2022/01/17 17:12:54;;;;;;;58.70;9.15;;;7.70;99.90;;;;;;5096943;28;20050;-64
2022/01/17 17:15:20;;;;;;;51.28;7.80;;;7.70;99.90;;;;;;5096869;28;20384;-64
2022/01/17 17:17:46;;;;;;;50.25;8.25;;;7.60;99.90;;;;;;5095545;28;20050;-64
2022/01/17 17:20:12;;;;;;;;;;;7.60;99.90;;;;;;5097995;28;20435;-64
2022/01/17 17:22:39;;;;;;;43.50;8.02;;;7.80;99.90;;;;;;5103839;28;19938;-63
2022/01/17 17:25:07;;;;;;;48.13;7.47;;;7.60;99.90;;;;;;5105610;28;20040;-64
2022/01/17 17:27:34;;;;;;;47.20;7.18;;;7.60;99.90;;;;;;5112680;28;20113;-63
2022/01/17 17:30:01;;;;;;;45.00;7.28;;;7.60;99.90;;;;;;5106061;28;20380;-65
2022/01/17 17:32:27;;;;;;;41.10;6.30;;;7.60;99.90;;;;;;5107316;28;20044;-65
2022/01/17 17:34:53;;;;;;;;;;;7.90;99.90;;;;;;5105680;28;20118;-63
2022/01/17 17:37:20;;;;;;;34.28;5.43;;;7.80;99.90;;;;;;5106246;28;20008;-64
2022/01/17 17:39:46;;;;;;;42.00;6.45;;;7.70;99.90;;;;;;5101697;28;20048;-64
2022/01/17 17:42:12;;;;;;;;;;;7.70;99.90;;;;;;5096628;28;20052;-62
2022/01/17 17:44:39;;;;;;;38.20;6.00;;;7.70;99.90;;;;;;5101667;28;19920;-63
2022/01/17 17:47:06;;;;;;;38.22;7.45;;;7.70;99.90;;;;;;5103942;28;20495;-64
2022/01/17 17:49:36;;;;;;;35.95;5.60;;;7.60;99.90;;;;;;5105171;28;20384;-64
2022/01/17 17:52:03;;;;;;;35.78;5.57;;;7.70;99.90;;;;;;5106565;28;20036;-63
2022/01/17 17:54:35;;;;;;;35.03;5.25;;;7.70;99.90;;;;;;5105961;28;20080;-64
2022/01/17 17:57:08;;;;;;;36.30;5.82;;;7.70;99.90;;;;;;5101975;28;20377;-62
2022/01/17 17:59:34;;;;;;;38.63;6.10;;;7.70;99.90;;;;;;5108121;28;20047;-63
2022/01/17 18:02:00;;;;;;;42.60;6.25;;;7.70;99.90;;;;;;5112032;28;20046;-64
2022/01/17 18:04:26;;;;;;;43.38;6.60;;;7.70;99.90;;;;;;5109934;28;20040;-62
2022/01/17 18:06:52;;;;;;;37.03;5.60;;;7.70;99.90;;;;;;5113341;28;20134;-62
2022/01/17 18:09:19;;;;;;;34.83;5.60;;;7.70;99.90;;;;;;5114834;28;20412;-63
2022/01/17 18:11:48;;;;;;;39.88;6.30;;;7.80;99.90;;;;;;5116379;27;20040;-64
2022/01/17 18:14:14;;;;;;;35.45;5.88;;;7.70;99.90;;;;;;5115617;28;20521;-64
2022/01/17 18:16:41;;;;;;;37.83;6.10;;;7.70;99.90;;;;;;5116167;28;20066;-64
2022/01/17 18:19:08;;;;;;;35.30;5.25;;;7.70;99.90;;;;;;5115764;27;20047;-65
2022/01/17 18:21:34;;;;;;;41.75;6.03;;;7.70;99.90;;;;;;5108319;27;20036;-64
2022/01/17 18:24:00;;;;;;;43.97;6.28;;;7.70;99.90;;;;;;5095560;28;20050;-65
2022/01/17 18:26:26;;;;;;;28.60;5.68;;;7.70;99.90;;;;;;5106702;27;20046;-64
2022/01/17 18:28:52;;;;;;;40.63;6.97;;;7.70;99.90;;;;;;5110896;27;20046;-64
2022/01/17 18:31:20;;;;;;;41.78;5.80;;;7.60;99.90;;;;;;5122551;27;20503;-64
2022/01/17 18:33:45;;;;;;;39.95;6.43;;;7.60;99.90;;;;;;5104935;27;20036;-64
2022/01/17 18:36:11;;;;;;;37.08;5.45;;;7.60;99.90;;;;;;5104810;27;20399;-64
2022/01/17 18:38:42;;;;;;;32.13;5.50;;;7.60;99.90;;;;;;5106181;28;20411;-65
2022/01/17 18:41:09;;;;;;;31.55;5.53;;;7.60;99.90;;;;;;5097870;28;20044;-64
2022/01/17 18:43:35;;;;;;;35.38;5.13;;;7.70;99.90;;;;;;5094823;28;20151;-64
2022/01/17 18:46:01;;;;;;;;;;;7.60;99.90;;;;;;5095565;28;20069;-64
2022/01/17 18:48:29;;;;;;;37.60;5.72;;;7.70;99.90;;;;;;5105635;28;19927;-64
2022/01/17 18:51:03;;;;;;;43.47;5.40;;;7.70;99.90;;;;;;5100329;28;20044;-64
2022/01/17 18:53:35;;;;;;;42.28;6.57;;;7.70;99.90;;;;;;5094933;28;20097;-65
2022/01/17 18:56:02;;;;;;;39.17;6.40;;;7.70;99.90;;;;;;5102186;28;20045;-64
2022/01/17 18:58:29;;;;;;;49.08;6.57;;;7.70;99.90;;;;;;5114302;28;20052;-65
2022/01/17 19:00:55;;;;;;;38.55;6.15;;;7.70;99.90;;;;;;5115710;28;20036;-64
2022/01/17 19:03:21;;;;;;;44.22;6.32;;;7.70;99.90;;;;;;5113724;28;20447;-64
2022/01/17 19:05:47;;;;;;;43.88;6.68;;;7.70;99.90;;;;;;5103074;28;20135;-64
2022/01/17 19:08:12;;;;;;;41.13;7.18;;;7.80;99.90;;;;;;5103924;28;20071;-64
2022/01/17 19:10:38;;;;;;;31.23;6.10;;;7.70;99.90;;;;;;5113448;28;20044;-64
2022/01/17 19:13:05;;;;;;;45.40;7.53;;;7.70;99.90;;;;;;5113048;28;20177;-64
2022/01/17 19:15:30;;;;;;;;;;;7.70;99.90;;;;;;5115245;28;20139;-63
2022/01/17 19:18:11;;;;;;;46.90;7.28;;;7.70;99.90;;;;;;5104698;28;19963;-64
2022/01/17 19:23:02;;;;;;;43.05;6.72;;;7.70;99.90;;;;;;5093362;28;20127;-64
2022/01/17 19:25:28;;;;;;;54.67;8.00;;;7.60;99.90;;;;;;5094399;28;20080;-65
2022/01/17 19:27:54;;;;;;;46.70;8.23;;;7.60;99.90;;;;;;5094210;28;20069;-64
2022/01/17 19:30:21;;;;;;;39.67;6.68;;;7.50;99.90;;;;;;5094216;28;20089;-64
2022/01/17 19:32:48;;;;;;;43.30;7.15;;;7.50;99.90;;;;;;5094113;28;20117;-64
2022/01/17 19:35:15;;;;;;;49.70;7.50;;;7.40;99.90;;;;;;5094932;28;20455;-64
2022/01/17 19:37:41;;;;;;;55.15;7.82;;;7.40;99.90;;;;;;5093136;28;20069;-64
2022/01/17 19:40:08;;;;;;;44.58;7.75;;;7.40;99.90;;;;;;5094140;28;20572;-63
2022/01/17 19:42:35;;;;;;;52.92;8.75;;;7.40;99.90;;;;;;5094626;28;20074;-63
2022/01/17 19:45:01;;;;;;;;;;;7.30;99.90;;;;;;5094498;28;20127;-64
2022/01/17 19:47:27;;;;;;;52.70;9.50;;;7.30;99.90;;;;;;5093916;28;19920;-64
2022/01/17 19:49:52;;;;;;;54.28;8.35;;;7.20;99.90;;;;;;5094500;28;20380;-64
2022/01/17 19:52:19;;;;;;;58.40;9.13;;;7.30;99.90;;;;;;5093873;28;20074;-64
2022/01/17 19:54:45;;;;;;;39.00;8.15;;;7.20;99.90;;;;;;5094245;28;20506;-63
2022/01/17 19:57:11;;;;;;;46.67;7.78;;;7.20;99.90;;;;;;5094220;28;20079;-63
2022/01/17 19:59:37;;;;;;;49.75;7.38;;;7.20;99.90;;;;;;5093808;28;20060;-63
2022/01/17 20:02:03;;;;;;;50.28;7.85;;;7.20;99.90;;;;;;5093758;28;20109;-62
2022/01/17 20:04:29;;;;;;;51.60;7.90;;;7.20;99.90;;;;;;5092845;28;20048;-63
2022/01/17 20:06:56;;;;;;;46.78;6.78;;;7.20;99.90;;;;;;5093702;28;20079;-64
2022/01/17 20:09:22;;;;;;;56.15;7.68;;;7.20;99.90;;;;;;5093174;28;20492;-64
2022/01/17 20:11:47;;;;;;;47.97;8.30;;;7.20;99.90;;;;;;5093642;28;20126;-65
2022/01/17 20:14:13;;;;;;;59.80;9.00;;;7.20;99.90;;;;;;5093640;28;20056;-64
2022/01/17 20:16:40;;;;;;;49.92;8.40;;;7.20;99.90;;;;;;5094294;28;20051;-65
2022/01/17 20:19:06;;;;;;;47.53;8.65;;;7.30;99.90;;;;;;5092465;28;20048;-63
2022/01/17 20:21:36;;;;;;;53.75;8.13;;;7.20;99.90;;;;;;5093474;28;20499;-65
2022/01/17 20:24:02;;;;;;;50.40;8.77;;;7.10;99.90;;;;;;5093656;28;20084;-65
2022/01/17 20:26:28;;;;;;;62.15;9.15;;;7.20;99.90;;;;;;5093477;28;20095;-65
2022/01/17 20:29:06;;;;;;;50.25;9.27;;;7.20;99.90;;;;;;5093390;28;20105;-66
2022/01/17 20:31:33;;;;;;;65.47;9.70;;;7.20;99.90;;;;;;5093522;28;20111;-64
2022/01/17 20:33:58;;;;;;;51.17;8.70;;;7.10;99.90;;;;;;5094160;28;20411;-63
2022/01/17 20:36:24;;;;;;;50.75;11.18;;;7.10;99.90;;;;;;5093445;28;20048;-62
2022/01/17 20:38:50;;;;;;;57.75;11.70;;;7.10;99.90;;;;;;5094042;28;20116;-63
2022/01/17 20:41:16;;;;;;;48.08;11.25;;;7.10;99.90;;;;;;5093343;28;20040;-64
2022/01/17 20:43:43;;;;;;;59.92;10.48;;;7.10;99.90;;;;;;5093308;28;20480;-63
2022/01/17 20:46:08;;;;;;;;;;;7.10;99.90;;;;;;5093829;28;20044;-63
2022/01/17 20:48:35;;;;;;;50.58;10.52;;;7.00;99.90;;;;;;5093196;28;20283;-62
2022/01/17 20:51:01;;;;;;;49.40;10.40;;;7.00;99.90;;;;;;5093319;28;20044;-63
2022/01/17 20:53:27;;;;;;;45.75;10.32;;;7.00;99.90;;;;;;5092978;28;20078;-64
2022/01/17 20:55:53;;;;;;;68.57;11.18;;;7.00;99.90;;;;;;5093386;28;20073;-63
2022/01/17 20:58:19;;;;;;;51.63;8.77;;;7.00;99.90;;;;;;5093182;28;20093;-62
2022/01/17 21:00:46;;;;;;;61.05;9.45;;;7.00;99.90;;;;;;5093090;28;20093;-64
2022/01/17 21:03:12;;;;;;;56.80;8.82;;;7.00;99.90;;;;;;5099668;28;20032;-64
